Time;durP1;ratioP1;P1;durP2;ratioP2;P2;SDS_P1;SDS_P2;PMS_P1;PMS_P2;Temp;Humidity;BMP_temperature;BMP_pressure;BME280_temperature;BME280_humidity;BME280_pressure;Samples;Min_cycle;Max_cycle;Signal;HPM_P1;HPM_P2
2021/08/26 00:07:10;;;;;;;5.90;5.30;;;;;;;15.63;84.27;98551.78;4984114;28;102901;-69
2021/08/26 00:09:38;;;;;;;9.90;6.97;;;;;;;15.49;85.62;98542.44;4978496;28;103914;-69
2021/08/26 00:12:07;;;;;;;5.87;4.93;;;;;;;15.51;85.34;98540.47;4980879;28;103942;-68
2021/08/26 00:14:35;;;;;;;5.33;4.83;;;;;;;15.58;84.79;98540.69;4961794;28;103349;-69
2021/08/26 00:17:05;;;;;;;5.80;5.10;;;;;;;15.63;84.62;98546.44;4976010;28;102760;-69
2021/08/26 00:19:33;;;;;;;7.13;5.60;;;;;;;15.66;84.56;98535.50;4980701;28;102711;-69
2021/08/26 00:22:02;;;;;;;5.70;4.93;;;;;;;15.62;84.89;98534.94;4985164;28;103320;-69
2021/08/26 00:24:30;;;;;;;6.03;5.00;;;;;;;15.60;85.27;98533.41;4977528;28;103047;-70
2021/08/26 00:26:57;;;;;;;6.33;5.63;;;;;;;15.48;86.12;98532.75;4975563;28;102624;-69
2021/08/26 00:29:25;;;;;;;9.73;7.50;;;;;;;15.23;87.38;98538.69;4985042;28;102701;-61
2021/08/26 00:31:53;;;;;;;7.87;6.67;;;;;;;15.06;88.80;98542.06;4964851;28;103436;-61
2021/08/26 00:34:23;;;;;;;7.03;6.20;;;;;;;15.14;87.91;98534.22;4960277;28;103112;-61
2021/08/26 00:36:51;;;;;;;5.77;5.17;;;;;;;15.21;86.83;98530.00;4983160;28;102697;-61
2021/08/26 00:39:19;;;;;;;6.27;5.20;;;;;;;15.25;86.15;98526.06;4962380;28;102682;-69
2021/08/26 00:41:47;;;;;;;6.37;5.67;;;;;;;15.14;86.97;98528.91;4965656;28;103289;-68
2021/08/26 00:44:15;;;;;;;7.20;5.67;;;;;;;15.11;86.88;98526.53;4979129;28;103087;-68
2021/08/26 00:46:47;;;;;;;7.47;6.57;;;;;;;15.08;86.67;98524.13;4977420;28;102715;-68
2021/08/26 00:49:16;;;;;;;6.43;5.40;;;;;;;15.03;87.19;98526.41;4981218;28;102607;-68
2021/08/26 00:51:46;;;;;;;5.63;5.07;;;;;;;15.08;86.26;98535.63;4983013;28;103740;-68
2021/08/26 00:54:14;;;;;;;9.23;7.07;;;;;;;15.04;85.66;98520.91;4980196;28;103201;-68
2021/08/26 00:56:42;;;;;;;7.30;6.50;;;;;;;15.09;85.54;98526.69;4975396;28;102590;-68
2021/08/26 00:59:10;;;;;;;7.17;6.47;;;;;;;15.07;85.65;98517.97;4961655;28;102994;-68
2021/08/26 01:01:46;;;;;;;7.83;6.53;;;;;;;14.89;87.06;98510.88;4954944;28;104124;-68
2021/08/26 01:04:25;;;;;;;7.47;6.63;;;;;;;14.82;87.82;98507.94;4977796;28;103377;-68
2021/08/26 01:07:01;;;;;;;6.13;5.50;;;;;;;14.70;88.95;98498.47;4978044;28;103129;-61
2021/08/26 01:09:39;;;;;;;10.13;7.47;;;;;;;14.60;88.08;98491.44;4975983;28;103825;-61
2021/08/26 01:12:09;;;;;;;7.83;6.50;;;;;;;14.45;89.45;98491.91;4980776;28;102982;-61
2021/08/26 01:14:38;;;;;;;5.77;5.20;;;;;;;14.35;89.61;98504.31;4978254;28;103233;-68
2021/08/26 01:17:06;;;;;;;8.07;6.70;;;;;;;14.49;88.31;98508.38;4956966;28;102837;-68
2021/08/26 01:19:34;;;;;;;5.50;4.70;;;;;;;14.57;87.55;98497.88;4976938;28;102731;-60
2021/08/26 01:22:03;;;;;;;7.07;6.30;;;;;;;14.62;86.35;98494.81;4951825;28;104163;-61
2021/08/26 01:24:34;;;;;;;8.57;6.90;;;;;;;14.61;86.53;98493.97;4978469;28;103281;-60
2021/08/26 01:27:05;;;;;;;6.73;5.50;;;;;;;14.58;86.88;98498.72;4979455;28;102616;-60
2021/08/26 01:29:34;;;;;;;5.30;4.80;;;;;;;14.61;86.22;98493.97;4961717;28;104301;-60
2021/08/26 01:32:02;;;;;;;5.73;5.13;;;;;;;14.67;85.84;98484.59;4979884;28;103988;-60
2021/08/26 01:34:30;;;;;;;5.90;4.77;;;;;;;14.70;85.94;98484.31;4980058;28;103228;-60
2021/08/26 01:36:58;;;;;;;5.40;4.87;;;;;;;14.70;85.62;98486.97;4981019;28;102619;-60
2021/08/26 01:39:26;;;;;;;10.13;7.00;;;;;;;14.41;88.06;98485.16;4980274;28;103877;-60
2021/08/26 01:41:56;;;;;;;7.47;6.40;;;;;;;14.35;88.91;98485.72;4980687;28;103046;-60
2021/08/26 01:44:26;;;;;;;7.53;6.80;;;;;;;14.35;88.50;98483.06;4974032;28;103215;-60
2021/08/26 01:46:56;;;;;;;7.70;6.43;;;;;;;14.37;87.96;98486.41;4976592;28;102775;-67
2021/08/26 01:49:24;;;;;;;8.47;6.40;;;;;;;14.38;88.14;98493.41;4977400;28;102638;-60
2021/08/26 01:51:52;;;;;;;6.73;5.87;;;;;;;14.43;87.55;98487.66;4980191;28;103051;-60
2021/08/26 01:54:20;;;;;;;6.53;5.50;;;;;;;14.49;86.53;98482.66;4960942;28;103242;-60
2021/08/26 01:56:49;;;;;;;6.47;5.70;;;;;;;14.48;86.71;98478.28;4977609;28;102648;-59
2021/08/26 01:59:16;;;;;;;6.43;5.63;;;;;;;14.49;86.82;98480.00;4978460;28;103051;-59
2021/08/26 02:01:46;;;;;;;8.57;6.97;;;;;;;14.41;86.90;98490.47;4973528;28;103474;-59
2021/08/26 02:04:14;;;;;;;7.17;6.47;;;;;;;14.39;86.74;98492.44;4978624;28;103266;-59
2021/08/26 02:06:42;;;;;;;7.07;5.60;;;;;;;14.35;87.04;98491.03;4975244;28;102630;-59
2021/08/26 02:09:10;;;;;;;5.83;5.23;;;;;;;14.31;87.25;98492.28;4979938;28;102835;-59
2021/08/26 02:11:38;;;;;;;4.80;4.33;;;;;;;14.34;86.90;98488.53;4956511;28;103946;-59
2021/08/26 02:14:06;;;;;;;6.80;6.17;;;;;;;14.26;86.93;98486.50;4962497;28;102684;-60
2021/08/26 02:16:34;;;;;;;6.77;5.27;;;;;;;14.02;89.06;98491.41;4973639;28;102835;-67
2021/08/26 02:19:04;;;;;;;5.40;4.90;;;;;;;14.12;88.30;98491.41;4977412;28;102938;-68
2021/08/26 02:21:32;;;;;;;6.90;6.20;;;;;;;14.17;87.28;98479.41;4975465;28;103272;-68
2021/08/26 02:24:00;;;;;;;6.53;5.30;;;;;;;14.20;86.76;98467.66;4978081;28;103224;-60
2021/08/26 02:26:28;;;;;;;5.90;5.30;;;;;;;14.25;86.38;98462.75;4977500;28;102830;-59
2021/08/26 02:28:56;;;;;;;6.03;5.43;;;;;;;14.28;86.09;98463.31;4976538;28;102629;-68
2021/08/26 02:31:24;;;;;;;6.17;5.23;;;;;;;14.28;86.43;98458.00;4972097;28;104058;-66
2021/08/26 02:33:52;;;;;;;5.67;5.03;;;;;;;14.30;86.14;98455.19;4975180;28;102646;-68
2021/08/26 02:36:22;;;;;;;7.10;6.07;;;;;;;14.31;86.15;98454.22;4957973;28;102949;-68
2021/08/26 02:38:50;;;;;;;5.83;5.23;;;;;;;14.27;86.77;98447.50;4978236;28;103657;-70
2021/08/26 02:41:19;;;;;;;6.73;5.93;;;;;;;14.27;86.71;98448.34;4976368;28;103975;-71
2021/08/26 02:43:47;;;;;;;5.27;4.77;;;;;;;14.27;86.81;98437.72;4982111;28;103296;-70
2021/08/26 02:46:15;;;;;;;5.20;4.70;;;;;;;14.32;86.49;98434.66;4956355;28;102786;-70
2021/08/26 02:48:43;;;;;;;4.90;4.43;;;;;;;14.34;86.61;98430.88;4979495;28;102588;-70
2021/08/26 02:51:11;;;;;;;5.70;5.10;;;;;;;14.39;85.96;98426.00;4956043;28;104308;-69
2021/08/26 02:53:40;;;;;;;6.17;4.87;;;;;;;14.33;87.03;98421.25;4954452;28;103235;-61
2021/08/26 02:56:08;;;;;;;5.80;4.23;;;;;;;14.40;86.23;98419.69;4979388;28;103100;-60
2021/08/26 02:58:36;;;;;;;4.33;3.93;;;;;;;14.44;86.31;98415.78;4959350;28;103208;-60
2021/08/26 03:01:04;;;;;;;4.63;4.23;;;;;;;14.47;86.21;98410.19;4946484;28;103300;-68
2021/08/26 03:03:33;;;;;;;11.83;5.67;;;;;;;14.47;86.28;98402.22;4979488;28;103007;-69
2021/08/26 03:06:00;;;;;;;5.13;4.63;;;;;;;14.42;86.68;98407.13;4978365;28;103284;-68
2021/08/26 03:08:28;;;;;;;5.90;5.27;;;;;;;14.49;85.88;98400.25;4975406;28;102794;-68
2021/08/26 03:10:58;;;;;;;5.23;4.73;;;;;;;14.55;86.13;98395.34;4982059;28;103426;-68
2021/08/26 03:13:26;;;;;;;5.43;4.50;;;;;;;14.56;86.01;98397.03;4956269;28;103033;-69
2021/08/26 03:15:56;;;;;;;6.03;5.33;;;;;;;14.56;85.97;98399.69;4956628;28;102765;-69
2021/08/26 03:18:25;;;;;;;5.57;4.97;;;;;;;14.56;86.27;98394.38;4978320;28;102718;-69
2021/08/26 03:20:53;;;;;;;5.30;4.63;;;;;;;14.59;85.87;98388.75;4977856;28;103307;-69
2021/08/26 03:31:25;;;;;;;8.37;5.60;;;;;;;14.58;86.38;98403.03;4972469;28;102995;-60
2021/08/26 03:33:53;;;;;;;5.13;4.63;;;;;;;14.62;86.22;98399.13;4990408;28;103354;-59
2021/08/26 03:36:26;;;;;;;5.60;5.03;;;;;;;14.70;85.80;98401.88;4978199;28;103313;-60
2021/08/26 03:38:55;;;;;;;5.47;4.97;;;;;;;14.72;85.49;98410.56;4987840;28;102657;-60
2021/08/26 03:41:23;;;;;;;6.00;5.37;;;;;;;14.68;86.03;98403.88;4994941;28;104023;-60
2021/08/26 03:43:52;;;;;;;6.90;5.70;;;;;;;14.72;85.64;98405.22;4995080;28;103362;-61
2021/08/26 03:46:20;;;;;;;5.60;5.10;;;;;;;14.71;85.97;98414.22;4985079;28;103249;-69
2021/08/26 03:48:50;;;;;;;6.73;6.00;;;;;;;14.70;85.58;98412.53;4988630;28;102679;-69
2021/08/26 03:51:17;;;;;;;5.30;4.80;;;;;;;14.72;85.45;98415.88;4985093;28;104000;-69
2021/08/26 03:53:45;;;;;;;6.63;5.70;;;;;;;14.69;85.35;98402.88;4984622;28;103372;-69
2021/08/26 03:56:13;;;;;;;5.87;5.27;;;;;;;14.71;85.30;98399.06;4990260;28;103224;-70
2021/08/26 03:58:41;;;;;;;6.43;5.83;;;;;;;14.61;86.17;98397.44;4981995;28;103038;-69
2021/08/26 04:01:09;;;;;;;6.40;5.07;;;;;;;14.67;85.48;98402.19;4992411;28;102929;-70
2021/08/26 04:03:38;;;;;;;9.13;7.37;;;;;;;14.58;84.89;98397.72;4984254;28;103877;-70
2021/08/26 04:06:07;;;;;;;6.10;5.50;;;;;;;14.64;85.09;98398.00;4968939;28;103300;-70
2021/08/26 04:08:35;;;;;;;5.83;5.23;;;;;;;14.73;84.74;98401.59;4965687;28;103288;-70
2021/08/26 04:11:03;;;;;;;10.10;7.03;;;;;;;14.67;85.33;98402.19;4991324;28;102600;-70
2021/08/26 04:13:31;;;;;;;7.17;6.03;;;;;;;14.71;84.69;98399.06;4985627;28;104039;-70
2021/08/26 04:15:59;;;;;;;7.17;6.03;;;;;;;14.76;84.41;98396.00;4971627;28;103105;-70
2021/08/26 04:18:27;;;;;;;9.13;7.13;;;;;;;14.73;84.11;98396.28;4988200;28;102764;-70
2021/08/26 04:20:55;;;;;;;8.80;6.73;;;;;;;14.74;84.11;98387.31;4986854;28;102711;-69
2021/08/26 04:23:25;;;;;;;5.90;5.30;;;;;;;14.80;84.10;98392.91;4985705;28;103382;-60
2021/08/26 04:25:53;;;;;;;8.37;6.00;;;;;;;14.75;84.41;98395.16;4986065;28;103238;-70
2021/08/26 04:28:21;;;;;;;7.07;6.13;;;;;;;14.80;84.07;98392.06;4981107;28;102879;-69
2021/08/26 04:30:49;;;;;;;8.37;6.27;;;;;;;14.87;83.61;98393.16;4988203;28;103861;-60
2021/08/26 04:33:17;;;;;;;6.67;5.37;;;;;;;14.88;83.64;98402.81;4992482;28;103024;-70
2021/08/26 04:35:45;;;;;;;6.60;5.30;;;;;;;14.93;83.72;98381.97;4969425;28;103243;-69
2021/08/26 04:38:13;;;;;;;6.73;5.53;;;;;;;14.97;84.29;98380.66;4999499;28;102643;-69
2021/08/26 04:40:43;;;;;;;7.10;5.40;;;;;;;14.98;84.50;98377.03;4998990;28;102795;-69
2021/08/26 04:43:11;;;;;;;7.90;6.77;;;;;;;14.93;85.41;98384.63;4999548;28;103391;-59
2021/08/26 04:45:39;;;;;;;6.10;5.50;;;;;;;14.84;85.95;98388.13;4999764;28;103405;-60
2021/08/26 04:48:07;;;;;;;5.87;5.27;;;;;;;14.89;85.70;98381.41;4998248;28;102759;-68
2021/08/26 04:50:35;;;;;;;6.00;5.00;;;;;;;14.91;85.31;98379.41;5000145;28;104011;-59
2021/08/26 04:53:03;;;;;;;5.97;5.37;;;;;;;14.97;85.41;98368.22;4989287;28;102704;-68
2021/08/26 04:55:31;;;;;;;5.40;4.13;;;;;;;15.02;84.95;98378.41;5000820;28;103232;-69
2021/08/26 04:58:01;;;;;;;5.57;5.07;;;;;;;15.04;85.43;98373.78;4990787;28;102985;-69
2021/08/26 05:00:29;;;;;;;9.73;6.50;;;;;;;15.03;85.62;98380.09;5000949;28;103067;-68
2021/08/26 05:02:57;;;;;;;7.73;5.60;;;;;;;15.00;85.55;98383.88;4993923;28;104051;-68
2021/08/26 05:05:26;;;;;;;5.40;4.90;;;;;;;15.05;85.11;98391.41;4993154;28;103209;-68
2021/08/26 05:07:54;;;;;;;5.83;5.03;;;;;;;15.12;84.85;98387.19;4985824;28;102646;-68
2021/08/26 05:10:22;;;;;;;6.77;4.90;;;;;;;15.16;84.86;98393.88;4992240;28;103510;-68
2021/08/26 05:12:50;;;;;;;5.83;4.90;;;;;;;15.21;84.33;98391.63;4995018;28;103270;-71
2021/08/26 05:15:20;;;;;;;8.17;5.37;;;;;;;15.25;84.96;98382.38;4988060;28;103390;-68
2021/08/26 05:17:48;;;;;;;6.13;5.53;;;;;;;15.24;85.42;98388.66;4973944;28;102677;-59
2021/08/26 05:20:16;;;;;;;9.00;5.67;;;;;;;15.16;85.34;98388.56;4972112;28;103981;-59
2021/08/26 05:22:45;;;;;;;6.70;5.67;;;;;;;15.25;85.04;98386.84;4976593;28;103267;-59
2021/08/26 05:25:13;;;;;;;5.03;4.53;;;;;;;15.30;84.79;98396.06;4978480;28;103120;-59
2021/08/26 05:27:40;;;;;;;9.77;6.80;;;;;;;15.31;84.56;98392.41;4978180;28;103233;-59
2021/08/26 05:30:09;;;;;;;7.83;5.40;;;;;;;15.39;84.08;98394.34;4981312;28;103103;-59
2021/08/26 05:32:38;;;;;;;9.03;6.07;;;;;;;15.41;84.10;98392.38;4979124;28;103038;-59
2021/08/26 05:35:07;;;;;;;7.47;5.63;;;;;;;15.38;84.89;98398.00;4975614;28;103210;-59
2021/08/26 05:37:35;;;;;;;6.13;5.47;;;;;;;15.40;84.48;98388.88;4971319;28;102783;-71
2021/08/26 05:40:04;;;;;;;5.80;4.97;;;;;;;15.50;84.24;98389.69;4947486;28;103538;-68
2021/08/26 05:42:32;;;;;;;8.20;6.50;;;;;;;15.56;83.47;98390.91;4972123;28;103237;-68
2021/08/26 05:45:00;;;;;;;9.33;6.20;;;;;;;15.57;83.94;98398.75;4976228;28;103229;-69
2021/08/26 05:47:28;;;;;;;8.40;7.30;;;;;;;15.53;84.35;98392.06;4966749;28;102797;-69
2021/08/26 05:49:57;;;;;;;5.83;5.00;;;;;;;15.61;83.96;98393.97;4952674;28;104091;-60
2021/08/26 05:52:25;;;;;;;5.17;4.47;;;;;;;15.68;84.05;98383.56;4956392;28;103244;-60
2021/08/26 05:54:53;;;;;;;5.33;4.83;;;;;;;15.74;84.22;98390.94;4965493;28;104258;-61
2021/08/26 05:57:21;;;;;;;4.97;4.47;;;;;;;15.78;83.07;98389.63;4965831;28;102667;-61
2021/08/26 05:59:49;;;;;;;7.73;4.90;;;;;;;15.83;83.15;98401.50;4971997;28;102733;-60
2021/08/26 06:02:17;;;;;;;5.17;4.60;;;;;;;15.85;83.43;98401.38;4972728;28;103831;-60
2021/08/26 06:04:45;;;;;;;5.60;4.73;;;;;;;15.81;83.24;98397.34;4973941;28;103306;-60
2021/08/26 06:07:15;;;;;;;9.63;6.20;;;;;;;15.83;83.61;98398.84;4968492;28;102709;-60
2021/08/26 06:09:42;;;;;;;4.73;4.03;;;;;;;15.87;83.63;98404.72;4970121;28;103962;-59
2021/08/26 06:12:10;;;;;;;5.73;5.13;;;;;;;15.88;83.08;98403.75;4975212;28;104113;-69
2021/08/26 06:14:38;;;;;;;7.27;6.00;;;;;;;15.94;82.72;98416.47;4974611;28;103968;-69
2021/08/26 06:17:07;;;;;;;8.60;6.47;;;;;;;15.95;84.05;98412.78;4972421;28;102940;-60
2021/08/26 06:19:35;;;;;;;6.73;4.90;;;;;;;15.97;83.49;98411.66;4971605;28;103688;-60
2021/08/26 06:22:03;;;;;;;5.83;4.93;;;;;;;15.95;84.43;98418.13;4982462;28;103206;-69
2021/08/26 06:24:32;;;;;;;5.47;4.70;;;;;;;16.08;83.72;98407.94;4987474;28;103267;-60
2021/08/26 06:27:02;;;;;;;8.43;6.43;;;;;;;16.06;83.90;98415.22;4968271;28;102737;-70
2021/08/26 06:29:29;;;;;;;8.90;7.13;;;;;;;16.14;85.02;98407.34;4956119;28;103224;-69
2021/08/26 06:31:57;;;;;;;8.33;7.60;;;;;;;16.10;84.13;98406.81;4974648;28;103261;-69
2021/08/26 06:34:26;;;;;;;7.50;6.40;;;;;;;16.14;83.57;98412.69;4985003;28;103249;-70
2021/08/26 06:36:54;;;;;;;10.63;7.20;;;;;;;16.12;82.77;98409.31;4984260;28;103125;-60
2021/08/26 06:39:21;;;;;;;11.63;7.07;;;;;;;16.22;82.38;98421.56;4986984;28;102667;-70
2021/08/26 06:41:51;;;;;;;11.13;9.40;;;;;;;16.19;82.54;98419.22;4984006;28;103276;-69
2021/08/26 06:44:19;;;;;;;9.13;7.77;;;;;;;16.22;83.06;98420.75;4971128;28;103262;-69
2021/08/26 06:46:47;;;;;;;6.47;5.87;;;;;;;16.25;82.27;98409.78;4985174;28;102937;-68
2021/08/26 06:49:16;;;;;;;6.80;5.63;;;;;;;16.29;83.39;98421.78;4987213;28;104484;-59
2021/08/26 06:51:44;;;;;;;6.90;6.20;;;;;;;16.31;82.39;98422.47;4986084;28;104286;-59
2021/08/26 06:54:13;;;;;;;6.73;6.03;;;;;;;16.12;83.43;98419.97;4961211;28;103328;-68
2021/08/26 06:56:41;;;;;;;10.97;8.57;;;;;;;16.12;82.74;98419.97;4974819;28;102607;-68
2021/08/26 06:59:11;;;;;;;7.13;5.87;;;;;;;16.32;82.09;98421.50;4986330;28;102716;-68
2021/08/26 07:01:39;;;;;;;7.90;7.10;;;;;;;16.45;81.88;98411.25;4981943;28;103269;-59
2021/08/26 07:04:07;;;;;;;7.40;6.00;;;;;;;16.42;80.53;98421.41;4991129;28;103226;-59
2021/08/26 07:06:35;;;;;;;8.43;7.63;;;;;;;16.41;80.83;98415.25;4970550;28;102678;-59
2021/08/26 07:09:03;;;;;;;11.03;9.20;;;;;;;16.32;81.37;98400.16;4980712;28;104290;-59
2021/08/26 07:11:31;;;;;;;9.37;8.27;;;;;;;16.43;80.84;98402.59;4969554;28;103061;-59
2021/08/26 07:13:59;;;;;;;10.10;8.93;;;;;;;16.30;81.64;98406.63;4974843;28;103238;-59
2021/08/26 07:16:29;;;;;;;7.93;6.60;;;;;;;16.51;81.55;98409.81;4974340;28;103792;-59
2021/08/26 07:18:57;;;;;;;10.57;9.47;;;;;;;16.53;82.37;98397.16;4974857;28;104513;-70
2021/08/26 07:21:25;;;;;;;11.63;10.43;;;;;;;16.41;82.58;98403.72;4972410;28;103279;-68
2021/08/26 07:23:53;;;;;;;9.70;8.50;;;;;;;16.58;82.56;98398.41;4969452;28;103193;-68
2021/08/26 07:26:21;;;;;;;8.20;6.90;;;;;;;16.59;82.39;98402.72;4966636;28;102966;-68
2021/08/26 07:28:51;;;;;;;9.80;8.80;;;;;;;16.57;81.99;98388.72;4971077;28;102788;-69
2021/08/26 07:31:19;;;;;;;12.10;9.83;;;;;;;16.59;82.65;98386.72;4974897;28;103331;-69
2021/08/26 07:33:49;;;;;;;9.03;8.23;;;;;;;16.49;82.78;98388.63;4977212;28;103211;-60
2021/08/26 07:36:17;;;;;;;9.60;8.57;;;;;;;16.59;81.46;98392.06;4972639;28;102715;-61
2021/08/26 07:38:45;;;;;;;8.73;7.37;;;;;;;16.49;81.57;98391.31;4975497;28;103605;-60
2021/08/26 07:41:13;;;;;;;8.37;7.57;;;;;;;16.54;80.86;98389.03;4974638;28;103321;-60
2021/08/26 07:43:41;;;;;;;9.60;8.53;;;;;;;16.53;80.65;98390.00;4974925;28;103200;-59
2021/08/26 07:46:11;;;;;;;11.07;9.50;;;;;;;16.57;80.44;98385.22;4975042;28;103053;-60
2021/08/26 07:48:40;;;;;;;10.43;9.00;;;;;;;16.51;79.76;98386.66;4975811;28;102848;-60
2021/08/26 07:51:09;;;;;;;12.97;9.80;;;;;;;16.34;81.13;98387.50;4975470;28;103600;-60
2021/08/26 07:53:37;;;;;;;11.20;9.13;;;;;;;16.33;80.61;98396.50;4956813;28;103220;-61
2021/08/26 07:56:05;;;;;;;11.50;9.67;;;;;;;16.24;80.73;98390.28;4980898;28;102580;-70
2021/08/26 07:58:33;;;;;;;15.82;9.45;;;;;;;16.14;80.74;98388.69;4979819;28;103050;-69
2021/08/26 08:01:02;;;;;;;10.93;8.80;;;;;;;15.98;83.20;98397.34;4978414;28;103305;-71
2021/08/26 08:03:32;;;;;;;10.67;8.50;;;;;;;15.77;86.29;98398.63;4979347;28;103273;-69
2021/08/26 08:06:01;;;;;;;13.17;11.23;;;;;;;15.13;92.74;98412.78;4977243;28;103088;-69
2021/08/26 08:08:31;;;;;;;17.60;12.10;;;;;;;15.08;95.37;98423.03;4977643;28;103914;-69
2021/08/26 08:10:59;;;;;;;14.97;11.87;;;;;;;14.82;97.87;98422.03;4958215;28;104352;-71
2021/08/26 08:13:31;;;;;;;14.17;11.80;;;;;;;15.04;98.26;98421.69;4974985;28;103058;-68
2021/08/26 08:16:00;;;;;;;12.33;11.00;;;;;;;15.32;96.59;98410.06;4974784;28;102720;-59
2021/08/26 08:18:29;;;;;;;14.27;11.23;;;;;;;15.36;96.65;98406.13;4978236;28;103345;-59
2021/08/26 08:20:57;;;;;;;10.67;9.57;;;;;;;15.31;97.15;98407.53;4962563;28;104176;-59
2021/08/26 08:23:25;;;;;;;12.90;10.57;;;;;;;15.47;96.21;98405.94;4977624;28;103330;-59
2021/08/26 08:25:54;;;;;;;15.50;12.17;;;;;;;15.50;96.04;98408.31;4975363;28;102688;-59
2021/08/26 08:28:22;;;;;;;10.13;9.13;;;;;;;15.73;95.86;98399.91;4983575;28;102708;-70
2021/08/26 08:30:52;;;;;;;10.57;9.47;;;;;;;15.57;95.26;98409.41;4979469;28;104067;-69
2021/08/26 08:33:20;;;;;;;10.10;9.10;;;;;;;15.80;94.91;98409.00;4980514;28;103230;-69
2021/08/26 08:35:48;;;;;;;13.50;11.23;;;;;;;15.80;94.01;98409.84;4979940;28;102586;-59
2021/08/26 08:38:17;;;;;;;12.33;10.07;;;;;;;15.91;94.70;98411.44;4979846;28;103933;-59
2021/08/26 08:40:47;;;;;;;13.63;9.80;;;;;;;16.00;93.48;98410.53;4957652;28;103292;-60
2021/08/26 08:43:17;;;;;;;13.30;9.43;;;;;;;16.32;93.55;98410.81;4981879;28;103908;-68
2021/08/26 08:45:45;;;;;;;12.63;11.37;;;;;;;16.05;95.34;98397.59;4960121;28;102749;-68
2021/08/26 08:48:14;;;;;;;11.43;10.23;;;;;;;16.23;93.83;98395.75;4974205;28;103892;-67
2021/08/26 08:50:42;;;;;;;13.63;12.30;;;;;;;16.36;93.94;98403.38;4957465;28;104248;-68
2021/08/26 08:53:12;;;;;;;11.93;10.73;;;;;;;16.60;93.21;98393.75;4969953;28;103218;-69
2021/08/26 08:55:42;;;;;;;13.50;11.20;;;;;;;16.63;92.13;98397.94;4972287;28;102612;-68
2021/08/26 08:58:10;;;;;;;11.47;10.30;;;;;;;16.87;91.62;98402.59;4971264;28;104091;-68
2021/08/26 09:00:40;;;;;;;12.97;11.63;;;;;;;16.59;92.31;98401.91;4962071;28;103272;-59
2021/08/26 09:03:09;;;;;;;14.53;11.83;;;;;;;16.41;91.80;98399.25;4965932;28;102965;-60
2021/08/26 09:05:51;;;;;;;12.27;10.90;;;;;;;16.32;92.75;98409.97;4970410;28;102774;-59
2021/08/26 09:08:19;;;;;;;13.83;12.23;;;;;;;16.55;93.56;98396.06;4964694;28;102812;-59
2021/08/26 09:10:47;;;;;;;14.40;12.40;;;;;;;16.64;91.68;98404.94;4967374;28;103978;-59
2021/08/26 09:13:16;;;;;;;12.77;11.37;;;;;;;16.98;93.95;98403.16;4949052;28;103245;-60
2021/08/26 09:15:48;;;;;;;10.80;9.73;;;;;;;16.76;94.88;98398.34;4968486;28;102800;-59
2021/08/26 09:18:18;;;;;;;13.87;12.57;;;;;;;16.63;93.98;98400.59;4969795;28;102653;-59
2021/08/26 09:20:50;;;;;;;13.33;11.87;;;;;;;16.51;94.06;98409.81;4972771;28;103772;-59
2021/08/26 09:23:19;;;;;;;12.38;11.18;;;;;;;16.47;94.64;98409.28;4956134;28;103699;-59
2021/08/26 09:25:47;;;;;;;13.03;11.80;;;;;;;16.48;95.95;98405.63;4957666;28;102752;-60
2021/08/26 09:28:32;;;;;;;11.70;10.60;;;;;;;16.70;94.57;98407.81;4971961;28;102874;-59
2021/08/26 09:31:13;;;;;;;11.47;10.27;;;;;;;17.00;96.56;98408.34;4967428;28;103320;-60
2021/08/26 09:33:51;;;;;;;13.17;11.73;;;;;;;16.74;94.63;98409.19;4969603;28;103373;-59
2021/08/26 09:36:21;;;;;;;10.63;9.60;;;;;;;16.79;95.60;98414.88;4970802;28;102775;-60
2021/08/26 09:38:54;;;;;;;11.80;10.73;;;;;;;16.87;95.32;98407.94;4969160;28;102906;-59
2021/08/26 09:41:43;;;;;;;10.63;9.63;;;;;;;17.13;93.76;98412.25;4966228;28;103036;-59
2021/08/26 09:44:14;;;;;;;10.75;9.77;;;;;;;17.07;94.29;98417.38;4969457;28;103013;-59
2021/08/26 09:46:45;;;;;;;10.32;9.20;;;;;;;16.88;95.50;98420.28;4957569;28;103460;-61
2021/08/26 09:49:15;;;;;;;9.05;8.25;;;;;;;16.78;94.58;98415.91;4975079;28;102805;-60
2021/08/26 09:51:44;;;;;;;8.45;7.75;;;;;;;16.72;95.43;98421.84;4976809;28;103244;-59
2021/08/26 09:54:32;;;;;;;9.52;8.65;;;;;;;16.50;96.18;98422.31;4960247;28;103221;-60
2021/08/26 09:57:02;;;;;;;7.50;6.90;;;;;;;16.55;96.04;98422.72;4957805;28;102782;-59
2021/08/26 09:59:47;;;;;;;7.28;6.53;;;;;;;16.48;96.28;98426.09;4980335;28;102664;-59
2021/08/26 10:02:18;;;;;;;6.00;5.40;;;;;;;16.31;98.17;98427.78;4978473;28;103324;-59
2021/08/26 10:04:47;;;;;;;7.60;6.90;;;;;;;16.37;96.86;98419.19;4977125;28;103220;-60
2021/08/26 10:07:16;;;;;;;7.93;7.13;;;;;;;15.96;96.96;98427.81;4977527;28;102695;-59
2021/08/26 10:09:45;;;;;;;7.28;6.57;;;;;;;16.19;97.56;98437.03;4956012;28;104155;-60
2021/08/26 10:12:15;;;;;;;7.25;6.55;;;;;;;16.15;97.41;98441.81;4977074;28;103137;-65
2021/08/26 10:14:47;;;;;;;5.55;5.07;;;;;;;16.07;96.46;98438.25;4973150;28;103328;-59
2021/08/26 10:17:17;;;;;;;5.13;4.72;;;;;;;15.65;99.00;98437.94;4977086;28;102863;-59
2021/08/26 10:19:46;;;;;;;5.30;4.88;;;;;;;15.89;98.03;98446.19;4979322;28;102629;-60
2021/08/26 10:22:14;;;;;;;4.70;4.30;;;;;;;15.44;98.57;98439.97;4979396;28;103032;-60
2021/08/26 10:24:43;;;;;;;3.90;3.60;;;;;;;15.89;97.96;98443.53;4971396;28;103156;-59
2021/08/26 10:27:14;;;;;;;4.00;3.70;;;;;;;16.21;96.21;98435.03;4977685;28;102637;-59
2021/08/26 10:29:45;;;;;;;4.82;4.43;;;;;;;16.42;94.13;98438.22;4978110;28;102625;-59
2021/08/26 10:32:18;;;;;;;5.05;4.65;;;;;;;16.38;94.46;98442.22;4974654;28;103348;-59
2021/08/26 10:35:07;;;;;;;5.07;4.57;;;;;;;16.23;94.58;98444.56;4973083;28;103379;-59
2021/08/26 10:37:49;;;;;;;5.28;4.78;;;;;;;15.85;96.60;98438.66;4976052;28;102767;-59
2021/08/26 10:40:32;;;;;;;4.65;4.25;;;;;;;16.33;96.13;98436.50;4971103;28;102786;-59
2021/08/26 10:43:01;;;;;;;4.95;4.45;;;;;;;16.50;94.20;98429.47;4974661;28;103244;-60
2021/08/26 10:45:33;;;;;;;5.05;4.63;;;;;;;16.45;91.32;98427.25;4978141;28;103360;-60
2021/08/26 10:48:22;;;;;;;4.80;4.40;;;;;;;16.80;92.55;98427.25;4974783;28;102744;-59
2021/08/26 10:51:06;;;;;;;5.97;5.38;;;;;;;16.59;91.95;98418.72;4975540;28;102767;-60
2021/08/26 10:53:35;;;;;;;5.37;4.77;;;;;;;16.98;91.29;98413.81;4955520;28;103404;-58
2021/08/26 10:56:26;;;;;;;6.20;5.60;;;;;;;17.28;87.61;98413.34;4974705;28;103233;-59
2021/08/26 10:58:55;;;;;;;4.83;4.33;;;;;;;17.77;86.62;98405.53;4971173;28;102617;-60
2021/08/26 11:01:35;;;;;;;5.20;4.80;;;;;;;18.07;84.32;98401.44;4974747;28;103019;-59
2021/08/26 11:04:08;;;;;;;5.88;5.28;;;;;;;18.05;85.45;98398.09;4977171;28;103169;-60
2021/08/26 11:06:44;;;;;;;5.20;4.50;;;;;;;18.12;83.40;98405.28;4958302;28;103191;-60
2021/08/26 11:09:33;;;;;;;5.32;4.82;;;;;;;18.12;82.48;98399.09;4977539;28;102612;-59
2021/08/26 11:12:24;;;;;;;4.95;4.28;;;;;;;18.25;82.25;98399.44;4965061;28;103836;-59
2021/08/26 11:15:00;;;;;;;5.88;5.28;;;;;;;18.15;80.46;98394.25;4967632;28;103270;-60
2021/08/26 11:17:31;;;;;;;5.65;5.15;;;;;;;18.14;80.28;98397.09;4961339;28;103401;-59
2021/08/26 11:20:31;;;;;;;6.97;4.90;;;;;;;18.10;81.47;98396.59;4950924;28;103037;-59
2021/08/26 11:23:08;;;;;;;6.05;5.10;;;;;;;18.35;80.90;98405.47;4971344;28;102709;-60
2021/08/26 11:25:36;;;;;;;6.95;6.25;;;;;;;18.11;79.82;98395.56;4969732;28;103041;-59
2021/08/26 11:28:33;;;;;;;5.93;5.30;;;;;;;17.79;80.98;98399.03;4972717;28;103290;-59
2021/08/26 11:31:19;;;;;;;7.35;6.45;;;;;;;17.75;80.15;98408.38;4958112;28;103540;-59
2021/08/26 11:33:49;;;;;;;7.50;6.70;;;;;;;17.66;77.94;98406.66;4973969;28;102985;-58
2021/08/26 11:36:20;;;;;;;7.70;6.90;;;;;;;17.68;79.76;98411.88;4969301;28;103248;-59
2021/08/26 11:38:54;;;;;;;7.72;6.95;;;;;;;17.82;79.02;98400.56;4951186;28;103519;-69
2021/08/26 11:41:22;;;;;;;8.70;7.60;;;;;;;17.61;79.77;98398.31;4974900;28;102968;-70
2021/08/26 11:43:51;;;;;;;7.32;6.63;;;;;;;18.01;79.87;98405.59;4954238;28;104433;-69
2021/08/26 11:46:20;;;;;;;8.43;7.35;;;;;;;18.06;78.14;98400.59;4981329;28;103232;-69
2021/08/26 11:48:53;;;;;;;8.00;7.18;;;;;;;17.42;80.11;98400.38;4960999;28;103469;-74